sensor_id;sensor_type;location;lat;lon;timestamp;noise_LAeq;noise_LA_min;noise_LA_max;noise_LA01;noise_LA95
64393;Laerm;50712;49.506;10.400;2023-09-07T00:00:14;63.50;54.35;67.33;;
64393;Laerm;50712;49.506;10.400;2023-09-07T00:00:45;63.27;51.10;67.63;;
64393;Laerm;50712;49.506;10.400;2023-09-07T00:01:16;62.49;53.04;67.17;;
64393;Laerm;50712;49.506;10.400;2023-09-07T00:01:46;62.76;53.25;67.95;;
64393;Laerm;50712;49.506;10.400;2023-09-07T00:02:17;62.26;50.48;70.97;;
64393;Laerm;50712;49.506;10.400;2023-09-07T00:02:47;61.49;50.02;72.05;;
64393;Laerm;50712;49.506;10.400;2023-09-07T00:03:17;53.60;49.89;60.47;;
64393;Laerm;50712;49.506;10.400;2023-09-07T00:03:47;55.75;51.18;61.26;;
64393;Laerm;50712;49.506;10.400;2023-09-07T00:04:21;55.89;51.59;65.75;;
64393;Laerm;50712;49.506;10.400;2023-09-07T00:04:52;56.36;51.86;60.49;;
64393;Laerm;50712;49.506;10.400;2023-09-07T00:05:23;56.97;51.43;60.80;;
64393;Laerm;50712;49.506;10.400;2023-09-07T00:05:53;53.68;49.54;58.46;;
64393;Laerm;50712;49.506;10.400;2023-09-07T00:06:24;52.73;48.99;59.67;;
64393;Laerm;50712;49.506;10.400;2023-09-07T00:06:54;55.66;52.24;59.41;;
64393;Laerm;50712;49.506;10.400;2023-09-07T00:07:25;54.09;49.38;58.73;;
64393;Laerm;50712;49.506;10.400;2023-09-07T00:07:55;51.12;48.71;53.53;;
64393;Laerm;50712;49.506;10.400;2023-09-07T00:08:26;52.72;50.00;55.17;;
64393;Laerm;50712;49.506;10.400;2023-09-07T00:08:56;52.28;49.86;55.31;;
64393;Laerm;50712;49.506;10.400;2023-09-07T00:09:57;50.85;48.76;56.49;;
64393;Laerm;50712;49.506;10.400;2023-09-07T00:10:27;55.49;49.36;63.81;;
64393;Laerm;50712;49.506;10.400;2023-09-07T00:11:03;52.10;48.67;58.24;;
64393;Laerm;50712;49.506;10.400;2023-09-07T00:11:33;53.32;50.09;59.76;;
64393;Laerm;50712;49.506;10.400;2023-09-07T00:12:04;52.28;49.87;55.90;;
64393;Laerm;50712;49.506;10.400;2023-09-07T00:12:34;52.25;50.04;57.61;;
64393;Laerm;50712;49.506;10.400;2023-09-07T00:13:05;52.95;50.26;56.95;;
64393;Laerm;50712;49.506;10.400;2023-09-07T00:13:35;51.81;49.47;55.44;;
64393;Laerm;50712;49.506;10.400;2023-09-07T00:14:06;51.71;49.34;55.47;;
64393;Laerm;50712;49.506;10.400;2023-09-07T00:14:37;50.88;48.45;54.91;;
64393;Laerm;50712;49.506;10.400;2023-09-07T00:15:08;50.91;49.02;56.61;;
64393;Laerm;50712;49.506;10.400;2023-09-07T00:15:40;51.76;49.08;55.76;;
64393;Laerm;50712;49.506;10.400;2023-09-07T00:16:10;52.50;48.82;55.21;;
64393;Laerm;50712;49.506;10.400;2023-09-07T00:16:41;53.18;50.14;57.08;;
64393;Laerm;50712;49.506;10.400;2023-09-07T00:17:11;53.03;50.44;56.38;;
64393;Laerm;50712;49.506;10.400;2023-09-07T00:17:42;52.87;49.63;55.49;;
64393;Laerm;50712;49.506;10.400;2023-09-07T00:18:12;53.07;50.11;57.43;;
64393;Laerm;50712;49.506;10.400;2023-09-07T00:18:43;53.73;50.18;57.96;;
64393;Laerm;50712;49.506;10.400;2023-09-07T00:19:13;56.62;49.70;61.06;;
64393;Laerm;50712;49.506;10.400;2023-09-07T00:19:43;51.63;48.29;57.69;;
64393;Laerm;50712;49.506;10.400;2023-09-07T00:20:16;49.83;47.83;53.74;;
64393;Laerm;50712;49.506;10.400;2023-09-07T00:20:49;59.62;48.71;64.62;;
64393;Laerm;50712;49.506;10.400;2023-09-07T00:21:20;58.48;49.34;61.28;;
64393;Laerm;50712;49.506;10.400;2023-09-07T00:21:50;57.32;48.30;63.47;;
64393;Laerm;50712;49.506;10.400;2023-09-07T00:22:21;57.79;48.55;62.18;;
64393;Laerm;50712;49.506;10.400;2023-09-07T00:22:52;55.38;48.94;61.42;;
64393;Laerm;50712;49.506;10.400;2023-09-07T00:23:22;52.51;48.36;63.94;;
64393;Laerm;50712;49.506;10.400;2023-09-07T00:23:53;50.71;47.91;54.46;;
64393;Laerm;50712;49.506;10.400;2023-09-07T00:24:23;50.47;48.17;54.48;;
64393;Laerm;50712;49.506;10.400;2023-09-07T00:24:53;50.66;48.27;53.01;;
64393;Laerm;50712;49.506;10.400;2023-09-07T00:25:24;51.88;48.89;54.67;;
64393;Laerm;50712;49.506;10.400;2023-09-07T00:25:54;50.44;48.23;53.78;;
64393;Laerm;50712;49.506;10.400;2023-09-07T00:26:24;51.13;48.83;56.41;;
64393;Laerm;50712;49.506;10.400;2023-09-07T00:26:55;50.99;48.94;55.29;;
64393;Laerm;50712;49.506;10.400;2023-09-07T00:27:25;54.44;49.06;59.16;;
64393;Laerm;50712;49.506;10.400;2023-09-07T00:27:55;57.79;53.61;60.98;;
64393;Laerm;50712;49.506;10.400;2023-09-07T00:28:26;57.36;54.24;59.68;;
64393;Laerm;50712;49.506;10.400;2023-09-07T00:28:57;56.33;51.86;59.96;;
64393;Laerm;50712;49.506;10.400;2023-09-07T00:29:27;57.58;52.54;61.12;;
64393;Laerm;50712;49.506;10.400;2023-09-07T00:29:57;56.47;51.04;59.30;;
64393;Laerm;50712;49.506;10.400;2023-09-07T00:30:28;56.27;52.71;64.89;;
64393;Laerm;50712;49.506;10.400;2023-09-07T00:30:58;54.43;50.44;59.01;;
64393;Laerm;50712;49.506;10.400;2023-09-07T00:31:28;53.71;48.99;58.55;;
64393;Laerm;50712;49.506;10.400;2023-09-07T00:31:58;54.96;51.92;58.99;;
64393;Laerm;50712;49.506;10.400;2023-09-07T00:32:29;53.37;50.06;58.68;;
64393;Laerm;50712;49.506;10.400;2023-09-07T00:32:59;53.04;49.55;57.60;;
64393;Laerm;50712;49.506;10.400;2023-09-07T00:33:29;54.69;51.60;57.36;;
64393;Laerm;50712;49.506;10.400;2023-09-07T00:34:00;55.86;51.94;59.91;;
64393;Laerm;50712;49.506;10.400;2023-09-07T00:34:30;56.71;49.65;60.60;;
64393;Laerm;50712;49.506;10.400;2023-09-07T00:35:01;52.64;49.81;56.67;;
64393;Laerm;50712;49.506;10.400;2023-09-07T00:36:02;54.61;50.40;57.30;;
64393;Laerm;50712;49.506;10.400;2023-09-07T00:36:33;54.36;50.33;57.55;;
64393;Laerm;50712;49.506;10.400;2023-09-07T00:37:03;52.73;49.49;56.18;;
64393;Laerm;50712;49.506;10.400;2023-09-07T00:37:34;52.00;49.99;55.89;;
64393;Laerm;50712;49.506;10.400;2023-09-07T00:38:04;52.07;49.87;56.71;;
64393;Laerm;50712;49.506;10.400;2023-09-07T00:38:34;58.25;50.97;62.78;;
64393;Laerm;50712;49.506;10.400;2023-09-07T00:39:05;60.63;50.52;64.55;;
64393;Laerm;50712;49.506;10.400;2023-09-07T00:40:07;53.41;50.73;56.19;;
64393;Laerm;50712;49.506;10.400;2023-09-07T00:40:42;53.82;51.14;56.93;;
64393;Laerm;50712;49.506;10.400;2023-09-07T00:41:14;55.15;50.27;60.28;;
64393;Laerm;50712;49.506;10.400;2023-09-07T00:41:44;55.56;50.54;60.43;;
64393;Laerm;50712;49.506;10.400;2023-09-07T00:42:15;55.22;50.58;59.66;;
64393;Laerm;50712;49.506;10.400;2023-09-07T00:42:45;54.83;50.38;58.95;;
64393;Laerm;50712;49.506;10.400;2023-09-07T00:43:16;54.25;50.37;59.50;;
64393;Laerm;50712;49.506;10.400;2023-09-07T00:43:46;54.71;50.75;60.23;;
64393;Laerm;50712;49.506;10.400;2023-09-07T00:44:17;54.39;50.98;58.35;;
64393;Laerm;50712;49.506;10.400;2023-09-07T00:44:47;52.24;48.78;57.18;;
64393;Laerm;50712;49.506;10.400;2023-09-07T00:45:18;50.83;47.97;54.25;;
64393;Laerm;50712;49.506;10.400;2023-09-07T00:45:50;50.48;48.38;53.17;;
64393;Laerm;50712;49.506;10.400;2023-09-07T00:46:20;51.29;48.29;55.07;;
64393;Laerm;50712;49.506;10.400;2023-09-07T00:46:52;51.57;48.33;55.30;;
64393;Laerm;50712;49.506;10.400;2023-09-07T00:47:53;51.59;49.35;54.58;;
64393;Laerm;50712;49.506;10.400;2023-09-07T00:48:24;50.87;48.41;55.09;;
64393;Laerm;50712;49.506;10.400;2023-09-07T00:48:55;50.85;47.68;59.05;;
64393;Laerm;50712;49.506;10.400;2023-09-07T00:49:27;51.05;47.71;58.26;;
64393;Laerm;50712;49.506;10.400;2023-09-07T00:49:58;51.60;48.15;58.96;;
64393;Laerm;50712;49.506;10.400;2023-09-07T00:50:29;51.12;47.98;58.69;;
64393;Laerm;50712;49.506;10.400;2023-09-07T00:50:59;51.41;48.15;58.43;;
64393;Laerm;50712;49.506;10.400;2023-09-07T00:51:31;51.97;47.92;58.50;;
64393;Laerm;50712;49.506;10.400;2023-09-07T00:52:02;51.63;48.26;56.22;;
64393;Laerm;50712;49.506;10.400;2023-09-07T00:53:04;53.19;49.26;57.28;;
64393;Laerm;50712;49.506;10.400;2023-09-07T00:53:36;52.02;49.46;55.06;;
64393;Laerm;50712;49.506;10.400;2023-09-07T00:54:07;51.70;49.78;54.50;;
64393;Laerm;50712;49.506;10.400;2023-09-07T00:54:38;51.79;49.08;54.25;;
64393;Laerm;50712;49.506;10.400;2023-09-07T00:55:11;52.09;49.34;53.79;;
64393;Laerm;50712;49.506;10.400;2023-09-07T00:55:42;51.92;49.48;53.89;;
64393;Laerm;50712;49.506;10.400;2023-09-07T00:56:13;51.73;48.92;54.07;;
64393;Laerm;50712;49.506;10.400;2023-09-07T00:56:44;51.62;49.47;53.99;;
64393;Laerm;50712;49.506;10.400;2023-09-07T00:57:14;51.77;48.89;54.05;;
64393;Laerm;50712;49.506;10.400;2023-09-07T00:57:45;51.73;48.82;55.03;;
64393;Laerm;50712;49.506;10.400;2023-09-07T00:58:15;51.85;48.78;54.95;;
64393;Laerm;50712;49.506;10.400;2023-09-07T00:58:46;50.05;48.44;54.13;;
64393;Laerm;50712;49.506;10.400;2023-09-07T00:59:16;52.23;48.41;55.77;;
64393;Laerm;50712;49.506;10.400;2023-09-07T00:59:47;51.05;48.13;54.91;;
64393;Laerm;50712;49.506;10.400;2023-09-07T01:00:17;49.81;48.00;55.53;;
64393;Laerm;50712;49.506;10.400;2023-09-07T01:00:48;50.16;47.58;55.04;;
64393;Laerm;50712;49.506;10.400;2023-09-07T01:01:20;51.08;47.33;56.80;;
64393;Laerm;50712;49.506;10.400;2023-09-07T01:01:50;51.63;47.69;56.59;;
64393;Laerm;50712;49.506;10.400;2023-09-07T01:02:23;51.61;48.27;56.76;;
64393;Laerm;50712;49.506;10.400;2023-09-07T01:02:53;54.86;49.44;59.01;;
64393;Laerm;50712;49.506;10.400;2023-09-07T01:03:26;55.33;50.35;58.39;;
64393;Laerm;50712;49.506;10.400;2023-09-07T01:03:56;54.24;49.59;58.52;;
64393;Laerm;50712;49.506;10.400;2023-09-07T01:04:27;52.71;47.84;57.39;;
64393;Laerm;50712;49.506;10.400;2023-09-07T01:04:57;52.17;48.57;56.24;;
64393;Laerm;50712;49.506;10.400;2023-09-07T01:05:37;51.70;47.55;59.95;;
64393;Laerm;50712;49.506;10.400;2023-09-07T01:06:32;51.59;48.25;55.39;;
64393;Laerm;50712;49.506;10.400;2023-09-07T01:07:20;51.85;48.44;55.38;;
64393;Laerm;50712;49.506;10.400;2023-09-07T01:07:58;52.03;48.45;55.88;;
64393;Laerm;50712;49.506;10.400;2023-09-07T01:08:34;51.35;47.77;55.26;;
64393;Laerm;50712;49.506;10.400;2023-09-07T01:09:15;51.14;48.28;55.60;;
64393;Laerm;50712;49.506;10.400;2023-09-07T01:09:51;51.13;47.60;55.82;;
64393;Laerm;50712;49.506;10.400;2023-09-07T01:10:23;50.34;47.22;55.82;;
64393;Laerm;50712;49.506;10.400;2023-09-07T01:10:53;52.20;47.89;54.97;;
64393;Laerm;50712;49.506;10.400;2023-09-07T01:11:23;50.05;47.78;54.71;;
64393;Laerm;50712;49.506;10.400;2023-09-07T01:11:55;50.48;47.69;55.83;;
64393;Laerm;50712;49.506;10.400;2023-09-07T01:12:26;50.78;46.97;56.15;;
64393;Laerm;50712;49.506;10.400;2023-09-07T01:12:57;49.49;47.36;55.07;;
64393;Laerm;50712;49.506;10.400;2023-09-07T01:13:58;50.86;47.57;59.31;;
64393;Laerm;50712;49.506;10.400;2023-09-07T01:14:28;49.45;47.14;56.26;;
64393;Laerm;50712;49.506;10.400;2023-09-07T01:14:58;49.34;47.23;53.07;;
64393;Laerm;50712;49.506;10.400;2023-09-07T01:15:29;49.41;47.48;52.48;;
64393;Laerm;50712;49.506;10.400;2023-09-07T01:16:00;49.40;47.20;52.68;;
64393;Laerm;50712;49.506;10.400;2023-09-07T01:16:32;49.33;47.52;51.79;;
64393;Laerm;50712;49.506;10.400;2023-09-07T01:17:06;49.51;47.64;53.44;;
64393;Laerm;50712;49.506;10.400;2023-09-07T01:17:37;49.85;47.91;52.80;;
64393;Laerm;50712;49.506;10.400;2023-09-07T01:18:09;49.46;47.93;51.60;;
64393;Laerm;50712;49.506;10.400;2023-09-07T01:18:41;49.87;48.01;53.59;;
64393;Laerm;50712;49.506;10.400;2023-09-07T01:19:12;49.92;48.04;52.42;;
64393;Laerm;50712;49.506;10.400;2023-09-07T01:19:44;50.41;48.32;55.53;;
64393;Laerm;50712;49.506;10.400;2023-09-07T01:20:48;50.33;48.57;54.05;;
64393;Laerm;50712;49.506;10.400;2023-09-07T01:21:19;51.93;48.88;55.38;;
64393;Laerm;50712;49.506;10.400;2023-09-07T01:21:49;52.96;49.89;58.06;;
64393;Laerm;50712;49.506;10.400;2023-09-07T01:22:21;52.43;49.14;56.08;;
64393;Laerm;50712;49.506;10.400;2023-09-07T01:22:55;51.52;49.00;54.63;;
64393;Laerm;50712;49.506;10.400;2023-09-07T01:23:26;51.36;48.23;55.53;;
64393;Laerm;50712;49.506;10.400;2023-09-07T01:23:57;50.25;48.08;55.67;;
64393;Laerm;50712;49.506;10.400;2023-09-07T01:24:28;50.36;47.95;57.04;;
64393;Laerm;50712;49.506;10.400;2023-09-07T01:25:02;50.47;47.85;58.25;;
64393;Laerm;50712;49.506;10.400;2023-09-07T01:25:34;50.16;47.31;58.46;;
64393;Laerm;50712;49.506;10.400;2023-09-07T01:26:07;49.93;47.78;56.83;;
64393;Laerm;50712;49.506;10.400;2023-09-07T01:26:38;50.29;47.47;57.91;;
64393;Laerm;50712;49.506;10.400;2023-09-07T01:27:09;49.86;47.86;51.94;;
64393;Laerm;50712;49.506;10.400;2023-09-07T01:27:40;49.80;48.34;53.12;;
64393;Laerm;50712;49.506;10.400;2023-09-07T01:28:10;49.46;47.87;54.31;;
64393;Laerm;50712;49.506;10.400;2023-09-07T01:28:41;49.83;48.04;52.49;;
64393;Laerm;50712;49.506;10.400;2023-09-07T01:29:12;50.59;48.27;53.49;;
64393;Laerm;50712;49.506;10.400;2023-09-07T01:29:43;50.27;47.74;59.96;;
64393;Laerm;50712;49.506;10.400;2023-09-07T01:30:15;50.27;47.50;60.30;;
64393;Laerm;50712;49.506;10.400;2023-09-07T01:30:47;51.16;47.76;57.20;;
64393;Laerm;50712;49.506;10.400;2023-09-07T01:31:18;49.45;46.92;52.04;;
64393;Laerm;50712;49.506;10.400;2023-09-07T01:31:48;49.04;47.00;54.00;;
64393;Laerm;50712;49.506;10.400;2023-09-07T01:32:18;49.98;47.68;53.52;;
64393;Laerm;50712;49.506;10.400;2023-09-07T01:32:49;50.09;47.04;55.49;;
64393;Laerm;50712;49.506;10.400;2023-09-07T01:33:20;50.33;47.86;54.44;;
64393;Laerm;50712;49.506;10.400;2023-09-07T01:33:50;49.45;47.06;53.00;;
64393;Laerm;50712;49.506;10.400;2023-09-07T01:34:20;51.96;47.75;55.46;;
64393;Laerm;50712;49.506;10.400;2023-09-07T01:34:53;50.73;47.93;55.36;;
64393;Laerm;50712;49.506;10.400;2023-09-07T01:35:26;50.03;47.81;54.92;;
64393;Laerm;50712;49.506;10.400;2023-09-07T01:35:57;49.98;47.53;55.45;;
64393;Laerm;50712;49.506;10.400;2023-09-07T01:36:28;50.31;47.53;55.24;;
64393;Laerm;50712;49.506;10.400;2023-09-07T01:36:59;52.09;47.52;55.86;;
64393;Laerm;50712;49.506;10.400;2023-09-07T01:37:29;51.55;47.70;55.80;;
64393;Laerm;50712;49.506;10.400;2023-09-07T01:38:00;50.68;47.45;57.86;;
64393;Laerm;50712;49.506;10.400;2023-09-07T01:38:30;56.94;48.20;60.72;;
64393;Laerm;50712;49.506;10.400;2023-09-07T01:39:02;53.20;48.06;58.93;;
64393;Laerm;50712;49.506;10.400;2023-09-07T01:39:33;55.14;48.38;62.16;;
64393;Laerm;50712;49.506;10.400;2023-09-07T01:40:03;59.35;51.69;62.16;;
64393;Laerm;50712;49.506;10.400;2023-09-07T01:40:37;58.72;51.75;61.98;;
64393;Laerm;50712;49.506;10.400;2023-09-07T01:41:07;51.28;48.23;54.37;;
64393;Laerm;50712;49.506;10.400;2023-09-07T01:41:38;51.51;49.31;55.12;;
64393;Laerm;50712;49.506;10.400;2023-09-07T01:42:08;50.55;48.20;53.20;;
64393;Laerm;50712;49.506;10.400;2023-09-07T01:42:38;50.80;48.22;53.82;;
64393;Laerm;50712;49.506;10.400;2023-09-07T01:43:09;51.17;48.95;53.77;;
64393;Laerm;50712;49.506;10.400;2023-09-07T01:43:39;50.09;47.94;53.56;;
64393;Laerm;50712;49.506;10.400;2023-09-07T01:44:09;49.56;47.21;53.15;;
64393;Laerm;50712;49.506;10.400;2023-09-07T01:44:40;49.76;47.21;55.92;;
64393;Laerm;50712;49.506;10.400;2023-09-07T01:45:10;49.06;46.80;53.10;;
64393;Laerm;50712;49.506;10.400;2023-09-07T01:45:41;48.90;46.50;52.41;;
64393;Laerm;50712;49.506;10.400;2023-09-07T01:46:11;49.05;46.79;54.98;;
64393;Laerm;50712;49.506;10.400;2023-09-07T01:46:42;48.75;46.83;52.72;;
64393;Laerm;50712;49.506;10.400;2023-09-07T01:47:12;49.65;47.54;54.02;;
64393;Laerm;50712;49.506;10.400;2023-09-07T01:47:42;49.83;47.42;56.22;;
64393;Laerm;50712;49.506;10.400;2023-09-07T01:48:14;50.03;47.55;54.46;;
64393;Laerm;50712;49.506;10.400;2023-09-07T01:48:44;49.53;47.66;53.24;;
64393;Laerm;50712;49.506;10.400;2023-09-07T01:49:14;51.28;47.49;57.00;;
64393;Laerm;50712;49.506;10.400;2023-09-07T01:49:45;49.17;47.26;52.89;;
64393;Laerm;50712;49.506;10.400;2023-09-07T01:50:15;49.82;47.58;53.40;;
64393;Laerm;50712;49.506;10.400;2023-09-07T01:50:46;49.98;47.35;54.15;;
64393;Laerm;50712;49.506;10.400;2023-09-07T01:51:16;49.76;46.87;54.61;;
64393;Laerm;50712;49.506;10.400;2023-09-07T01:51:47;49.97;47.10;53.59;;
64393;Laerm;50712;49.506;10.400;2023-09-07T01:52:17;49.48;47.03;54.08;;
64393;Laerm;50712;49.506;10.400;2023-09-07T01:52:49;49.39;47.24;54.32;;
64393;Laerm;50712;49.506;10.400;2023-09-07T01:53:20;50.16;47.38;55.04;;
64393;Laerm;50712;49.506;10.400;2023-09-07T01:53:51;49.53;46.95;55.16;;
64393;Laerm;50712;49.506;10.400;2023-09-07T01:54:21;49.60;46.81;55.29;;
64393;Laerm;50712;49.506;10.400;2023-09-07T01:54:52;49.68;47.24;54.56;;
64393;Laerm;50712;49.506;10.400;2023-09-07T01:55:22;49.24;46.93;54.45;;
64393;Laerm;50712;49.506;10.400;2023-09-07T01:55:56;49.75;46.75;56.02;;
64393;Laerm;50712;49.506;10.400;2023-09-07T01:56:26;50.75;47.64;57.92;;
64393;Laerm;50712;49.506;10.400;2023-09-07T01:56:57;49.61;46.85;57.30;;
64393;Laerm;50712;49.506;10.400;2023-09-07T01:57:28;48.62;46.60;53.83;;
64393;Laerm;50712;49.506;10.400;2023-09-07T01:57:59;48.91;46.74;54.07;;
64393;Laerm;50712;49.506;10.400;2023-09-07T01:58:30;49.91;46.48;55.03;;
64393;Laerm;50712;49.506;10.400;2023-09-07T01:59:00;50.07;47.32;52.70;;
64393;Laerm;50712;49.506;10.400;2023-09-07T01:59:30;49.38;46.92;52.86;;
64393;Laerm;50712;49.506;10.400;2023-09-07T02:00:01;50.57;47.76;53.97;;
64393;Laerm;50712;49.506;10.400;2023-09-07T02:00:36;48.38;46.93;52.88;;
64393;Laerm;50712;49.506;10.400;2023-09-07T02:01:06;49.04;46.94;54.86;;
64393;Laerm;50712;49.506;10.400;2023-09-07T02:01:37;48.86;46.53;53.09;;
64393;Laerm;50712;49.506;10.400;2023-09-07T02:02:08;48.22;46.65;52.42;;
64393;Laerm;50712;49.506;10.400;2023-09-07T02:02:39;48.11;46.82;50.89;;
64393;Laerm;50712;49.506;10.400;2023-09-07T02:03:09;48.38;46.90;51.63;;
64393;Laerm;50712;49.506;10.400;2023-09-07T02:03:40;48.97;47.59;50.86;;
64393;Laerm;50712;49.506;10.400;2023-09-07T02:04:10;48.85;47.35;53.63;;
64393;Laerm;50712;49.506;10.400;2023-09-07T02:04:41;48.70;47.39;51.13;;
64393;Laerm;50712;49.506;10.400;2023-09-07T02:05:15;48.33;46.89;51.34;;
64393;Laerm;50712;49.506;10.400;2023-09-07T02:05:46;48.39;46.67;51.07;;
64393;Laerm;50712;49.506;10.400;2023-09-07T02:06:17;48.56;46.86;51.73;;
64393;Laerm;50712;49.506;10.400;2023-09-07T02:06:48;48.86;46.89;52.37;;
64393;Laerm;50712;49.506;10.400;2023-09-07T02:07:18;49.15;46.79;55.20;;
64393;Laerm;50712;49.506;10.400;2023-09-07T02:07:49;49.76;47.10;55.11;;
64393;Laerm;50712;49.506;10.400;2023-09-07T02:08:22;51.42;47.70;56.82;;
64393;Laerm;50712;49.506;10.400;2023-09-07T02:08:52;51.80;48.04;57.50;;
64393;Laerm;50712;49.506;10.400;2023-09-07T02:09:22;50.76;47.42;56.53;;
64393;Laerm;50712;49.506;10.400;2023-09-07T02:09:53;50.59;47.42;56.77;;
64393;Laerm;50712;49.506;10.400;2023-09-07T02:10:23;53.87;48.90;57.76;;
64393;Laerm;50712;49.506;10.400;2023-09-07T02:10:54;50.70;48.08;56.36;;
64393;Laerm;50712;49.506;10.400;2023-09-07T02:11:26;51.41;48.32;57.02;;
64393;Laerm;50712;49.506;10.400;2023-09-07T02:11:57;54.44;48.74;58.72;;
64393;Laerm;50712;49.506;10.400;2023-09-07T02:12:27;53.00;48.73;56.06;;
64393;Laerm;50712;49.506;10.400;2023-09-07T02:12:58;50.63;48.92;54.35;;
64393;Laerm;50712;49.506;10.400;2023-09-07T02:13:28;50.40;48.11;54.49;;
64393;Laerm;50712;49.506;10.400;2023-09-07T02:13:58;49.36;47.58;55.49;;
64393;Laerm;50712;49.506;10.400;2023-09-07T02:14:28;50.96;47.70;59.16;;
64393;Laerm;50712;49.506;10.400;2023-09-07T02:15:01;52.15;48.04;56.69;;
64393;Laerm;50712;49.506;10.400;2023-09-07T02:15:32;52.05;47.57;55.49;;
64393;Laerm;50712;49.506;10.400;2023-09-07T02:16:06;49.82;46.53;55.33;;
64393;Laerm;50712;49.506;10.400;2023-09-07T02:16:38;48.90;46.71;64.09;;
64393;Laerm;50712;49.506;10.400;2023-09-07T02:17:08;48.67;47.10;51.94;;
64393;Laerm;50712;49.506;10.400;2023-09-07T02:17:39;48.95;47.12;52.82;;
64393;Laerm;50712;49.506;10.400;2023-09-07T02:18:09;48.70;46.55;51.74;;
64393;Laerm;50712;49.506;10.400;2023-09-07T02:18:42;49.26;47.07;52.56;;
64393;Laerm;50712;49.506;10.400;2023-09-07T02:19:17;51.12;46.64;59.72;;
64393;Laerm;50712;49.506;10.400;2023-09-07T02:19:48;50.22;46.83;54.79;;
64393;Laerm;50712;49.506;10.400;2023-09-07T02:20:18;50.56;47.37;58.00;;
64393;Laerm;50712;49.506;10.400;2023-09-07T02:20:50;52.44;48.16;57.57;;
64393;Laerm;50712;49.506;10.400;2023-09-07T02:21:20;53.75;49.87;56.37;;
64393;Laerm;50712;49.506;10.400;2023-09-07T02:21:51;52.98;50.45;57.24;;
64393;Laerm;50712;49.506;10.400;2023-09-07T02:22:23;52.64;49.26;57.56;;
64393;Laerm;50712;49.506;10.400;2023-09-07T02:22:53;52.52;49.73;56.16;;
64393;Laerm;50712;49.506;10.400;2023-09-07T02:23:23;52.30;49.66;56.78;;
64393;Laerm;50712;49.506;10.400;2023-09-07T02:23:54;52.01;49.07;55.61;;
64393;Laerm;50712;49.506;10.400;2023-09-07T02:24:24;51.89;48.39;55.54;;
64393;Laerm;50712;49.506;10.400;2023-09-07T02:24:55;51.90;48.84;56.46;;
64393;Laerm;50712;49.506;10.400;2023-09-07T02:25:25;51.65;48.94;55.32;;
64393;Laerm;50712;49.506;10.400;2023-09-07T02:25:56;52.20;49.15;58.15;;
64393;Laerm;50712;49.506;10.400;2023-09-07T02:26:26;52.25;49.41;55.84;;
64393;Laerm;50712;49.506;10.400;2023-09-07T02:26:57;53.20;50.00;57.82;;
64393;Laerm;50712;49.506;10.400;2023-09-07T02:27:27;52.76;49.46;56.92;;
64393;Laerm;50712;49.506;10.400;2023-09-07T02:27:57;53.33;49.92;57.50;;
64393;Laerm;50712;49.506;10.400;2023-09-07T02:28:28;53.81;49.14;59.24;;
64393;Laerm;50712;49.506;10.400;2023-09-07T02:28:58;53.79;50.16;57.56;;
64393;Laerm;50712;49.506;10.400;2023-09-07T02:29:29;52.99;50.29;56.64;;
64393;Laerm;50712;49.506;10.400;2023-09-07T02:29:59;52.83;49.24;56.32;;
64393;Laerm;50712;49.506;10.400;2023-09-07T02:30:29;52.40;49.71;56.14;;
64393;Laerm;50712;49.506;10.400;2023-09-07T02:31:03;52.06;49.32;57.96;;
64393;Laerm;50712;49.506;10.400;2023-09-07T02:31:34;51.91;49.39;56.95;;
64393;Laerm;50712;49.506;10.400;2023-09-07T02:32:05;52.31;49.65;56.21;;
64393;Laerm;50712;49.506;10.400;2023-09-07T02:32:35;53.00;50.22;56.57;;
64393;Laerm;50712;49.506;10.400;2023-09-07T02:33:06;53.07;50.06;57.96;;
64393;Laerm;50712;49.506;10.400;2023-09-07T02:33:36;53.24;49.56;58.81;;
64393;Laerm;50712;49.506;10.400;2023-09-07T02:34:08;53.11;49.50;57.08;;
64393;Laerm;50712;49.506;10.400;2023-09-07T02:34:38;52.91;49.43;57.80;;
64393;Laerm;50712;49.506;10.400;2023-09-07T02:35:09;53.76;50.29;59.50;;
64393;Laerm;50712;49.506;10.400;2023-09-07T02:35:39;53.57;51.24;57.21;;
64393;Laerm;50712;49.506;10.400;2023-09-07T02:36:10;53.60;51.20;57.37;;
64393;Laerm;50712;49.506;10.400;2023-09-07T02:36:40;53.37;50.59;57.81;;
64393;Laerm;50712;49.506;10.400;2023-09-07T02:37:10;53.17;48.54;58.71;;
64393;Laerm;50712;49.506;10.400;2023-09-07T02:37:41;52.91;48.36;57.29;;
64393;Laerm;50712;49.506;10.400;2023-09-07T02:38:11;52.63;48.52;57.09;;
64393;Laerm;50712;49.506;10.400;2023-09-07T02:38:43;52.44;48.69;58.55;;
64393;Laerm;50712;49.506;10.400;2023-09-07T02:39:14;51.94;48.79;56.79;;
64393;Laerm;50712;49.506;10.400;2023-09-07T02:39:44;52.61;49.47;58.99;;
64393;Laerm;50712;49.506;10.400;2023-09-07T02:40:15;51.63;49.15;54.25;;
64393;Laerm;50712;49.506;10.400;2023-09-07T02:40:46;52.08;49.71;54.46;;
64393;Laerm;50712;49.506;10.400;2023-09-07T02:41:17;51.82;49.41;54.06;;
64393;Laerm;50712;49.506;10.400;2023-09-07T02:41:47;51.46;48.89;54.47;;
64393;Laerm;50712;49.506;10.400;2023-09-07T02:42:18;56.14;49.80;60.93;;
64393;Laerm;50712;49.506;10.400;2023-09-07T02:42:48;57.02;51.95;59.71;;
64393;Laerm;50712;49.506;10.400;2023-09-07T02:43:18;55.81;51.73;58.31;;
64393;Laerm;50712;49.506;10.400;2023-09-07T02:43:49;54.28;48.64;61.33;;
64393;Laerm;50712;49.506;10.400;2023-09-07T02:44:19;54.09;48.80;59.48;;
64393;Laerm;50712;49.506;10.400;2023-09-07T02:44:50;55.04;49.02;57.78;;
64393;Laerm;50712;49.506;10.400;2023-09-07T02:45:21;55.70;52.44;57.79;;
64393;Laerm;50712;49.506;10.400;2023-09-07T02:46:24;56.08;48.82;58.29;;
64393;Laerm;50712;49.506;10.400;2023-09-07T02:46:54;56.43;51.06;58.48;;
64393;Laerm;50712;49.506;10.400;2023-09-07T02:47:25;55.39;50.51;57.88;;
64393;Laerm;50712;49.506;10.400;2023-09-07T02:47:55;53.64;50.62;56.88;;
64393;Laerm;50712;49.506;10.400;2023-09-07T02:48:25;53.04;49.01;57.86;;
64393;Laerm;50712;49.506;10.400;2023-09-07T02:48:57;50.93;47.28;54.77;;
64393;Laerm;50712;49.506;10.400;2023-09-07T02:49:28;50.78;47.94;56.50;;
64393;Laerm;50712;49.506;10.400;2023-09-07T02:49:59;51.80;47.41;56.86;;
64393;Laerm;50712;49.506;10.400;2023-09-07T02:50:32;52.02;47.64;56.24;;
64393;Laerm;50712;49.506;10.400;2023-09-07T02:51:03;52.40;47.80;58.45;;
64393;Laerm;50712;49.506;10.400;2023-09-07T02:51:33;52.17;48.30;57.72;;
64393;Laerm;50712;49.506;10.400;2023-09-07T02:52:04;53.02;49.20;56.93;;
64393;Laerm;50712;49.506;10.400;2023-09-07T02:52:34;52.44;48.61;56.22;;
64393;Laerm;50712;49.506;10.400;2023-09-07T02:53:05;51.15;48.58;55.46;;
64393;Laerm;50712;49.506;10.400;2023-09-07T02:53:36;54.04;48.97;60.09;;
64393;Laerm;50712;49.506;10.400;2023-09-07T02:54:06;54.03;48.71;58.65;;
64393;Laerm;50712;49.506;10.400;2023-09-07T02:54:37;56.38;49.96;60.28;;
64393;Laerm;50712;49.506;10.400;2023-09-07T02:55:07;57.10;48.29;60.59;;
64393;Laerm;50712;49.506;10.400;2023-09-07T02:55:39;57.18;49.38;61.92;;